Time;durP1;ratioP1;P1;durP2;ratioP2;P2;SDS_P1;SDS_P2;PMS_P1;PMS_P2;Temp;Humidity;BMP_temperature;BMP_pressure;BME280_temperature;BME280_humidity;BME280_pressure;Samples;Min_cycle;Max_cycle;Signal;HPM_P1;HPM_P2
2022/07/17 00:00:18;;;;;;;1.52;1.02;;;18.10;99.90;;;;;;5055905;28;20288;-84
2022/07/17 00:02:43;;;;;;;8.20;1.70;;;17.90;99.90;;;;;;5038455;28;20170;-83
2022/07/17 00:05:09;;;;;;;4.68;1.25;;;17.70;99.90;;;;;;5038242;28;20202;-83
2022/07/17 00:07:35;;;;;;;6.70;1.30;;;17.70;99.90;;;;;;5055637;28;20202;-82
2022/07/17 00:10:01;;;;;;;9.85;1.58;;;17.70;99.90;;;;;;5055612;28;20198;-83
2022/07/17 00:12:27;;;;;;;2.97;1.10;;;17.60;99.90;;;;;;5055296;28;20222;-84
2022/07/17 00:14:53;;;;;;;3.95;1.17;;;17.60;99.90;;;;;;5037394;28;20639;-83
2022/07/17 00:17:19;;;;;;;7.32;1.13;;;17.50;99.90;;;;;;5020919;28;20178;-82
2022/07/17 00:19:44;;;;;;;2.72;0.90;;;17.50;99.90;;;;;;5037540;28;20211;-83
2022/07/17 00:22:10;;;;;;;10.80;1.63;;;17.70;99.90;;;;;;5037826;28;20164;-82
2022/07/17 00:24:35;;;;;;;5.43;1.52;;;17.90;99.90;;;;;;5055543;28;20258;-81
2022/07/17 00:27:01;;;;;;;3.40;1.25;;;17.90;99.90;;;;;;5055414;28;20237;-84
2022/07/17 00:29:27;;;;;;;2.78;1.23;;;18.00;99.90;;;;;;5055484;28;20643;-84
2022/07/17 00:31:53;;;;;;;4.50;1.92;;;17.90;99.90;;;;;;5037266;28;20178;-83
2022/07/17 00:34:18;;;;;;;10.05;1.42;;;17.80;99.90;;;;;;5055107;28;20171;-82
2022/07/17 00:36:44;;;;;;;2.28;1.00;;;17.80;99.90;;;;;;5055631;28;20259;-82
2022/07/17 00:39:11;;;;;;;3.85;1.50;;;17.80;99.90;;;;;;5055716;28;20163;-84
2022/07/17 00:41:36;;;;;;;2.42;1.15;;;17.80;99.90;;;;;;5037423;28;20179;-85
2022/07/17 00:44:08;;;;;;;6.90;1.10;;;17.70;99.90;;;;;;5037180;28;20179;-84
2022/07/17 00:46:34;;;;;;;3.92;1.00;;;17.60;99.90;;;;;;5037306;28;20194;-84
2022/07/17 00:49:00;;;;;;;4.65;1.10;;;17.70;99.90;;;;;;5055344;28;20168;-83
2022/07/17 00:51:26;;;;;;;3.28;1.55;;;17.60;99.90;;;;;;5037275;28;20183;-85
2022/07/17 00:53:52;;;;;;;2.65;1.15;;;17.70;99.90;;;;;;5037352;28;20170;-83
2022/07/17 00:56:21;;;;;;;4.18;1.35;;;17.60;99.90;;;;;;5054832;28;20175;-84
2022/07/17 00:58:49;;;;;;;5.85;1.30;;;17.60;99.90;;;;;;5054764;28;20175;-82
2022/07/17 01:01:17;;;;;;;1.98;1.27;;;17.60;99.90;;;;;;5054647;28;20619;-81
2022/07/17 01:03:43;;;;;;;3.47;1.15;;;17.50;99.90;;;;;;5037321;28;20172;-82
2022/07/17 01:06:09;;;;;;;9.05;1.23;;;17.60;99.90;;;;;;5036820;28;20170;-84
2022/07/17 01:08:36;;;;;;;5.57;1.20;;;17.50;99.90;;;;;;5054465;28;20167;-84
2022/07/17 01:11:03;;;;;;;12.68;1.63;;;17.40;99.90;;;;;;5037071;28;20210;-82
2022/07/17 01:13:31;;;;;;;5.10;1.23;;;17.50;99.90;;;;;;5054153;28;20167;-84
2022/07/17 01:15:57;;;;;;;3.45;1.27;;;17.50;99.90;;;;;;5053935;28;20547;-81
2022/07/17 01:18:23;;;;;;;6.57;1.70;;;17.60;99.90;;;;;;5036117;28;20171;-83
2022/07/17 01:20:49;;;;;;;3.38;1.23;;;17.80;99.90;;;;;;5053732;28;20206;-83
2022/07/17 01:23:17;;;;;;;7.22;2.17;;;17.90;99.90;;;;;;5053474;28;20174;-82
2022/07/17 01:25:43;;;;;;;3.00;1.25;;;17.80;99.90;;;;;;5035819;28;20175;-82
2022/07/17 01:28:10;;;;;;;7.15;1.55;;;17.70;99.90;;;;;;5036002;28;20612;-84
2022/07/17 01:30:36;;;;;;;2.78;1.05;;;17.70;99.90;;;;;;5035749;28;20195;-85
2022/07/17 01:33:02;;;;;;;6.38;1.58;;;17.90;99.90;;;;;;5054527;28;20210;-81
2022/07/17 01:35:28;;;;;;;2.45;1.45;;;18.00;99.90;;;;;;5037087;28;20167;-82
2022/07/17 01:37:53;;;;;;;3.35;1.70;;;18.00;99.90;;;;;;5037280;28;20211;-84
2022/07/17 01:40:19;;;;;;;4.75;1.20;;;17.90;99.90;;;;;;5057916;28;20614;-82
2022/07/17 01:42:49;;;;;;;3.28;1.02;;;17.80;99.90;;;;;;5041874;28;20159;-82
2022/07/17 01:45:17;;;;;;;4.47;1.27;;;17.70;99.90;;;;;;5055805;28;20250;-82
2022/07/17 01:47:43;;;;;;;4.38;1.35;;;17.60;99.90;;;;;;5062892;28;20159;-82
2022/07/17 01:50:10;;;;;;;6.55;1.10;;;17.30;99.90;;;;;;5054947;28;20286;-82
2022/07/17 01:52:38;;;;;;;4.38;1.60;;;17.20;99.90;;;;;;5061645;28;20174;-82
2022/07/17 01:55:06;;;;;;;3.33;1.50;;;17.20;99.90;;;;;;5054380;28;20228;-83
2022/07/17 01:57:32;;;;;;;3.53;1.30;;;17.20;99.90;;;;;;5037978;28;20512;-82
2022/07/17 01:59:58;;;;;;;3.08;1.73;;;17.30;99.90;;;;;;5065267;28;20257;-80
2022/07/17 02:02:23;;;;;;;2.47;1.17;;;17.30;99.90;;;;;;5062836;28;20199;-85
2022/07/17 02:04:49;;;;;;;1.98;1.20;;;17.20;99.90;;;;;;5061807;28;20179;-82
2022/07/17 02:07:14;;;;;;;5.60;1.70;;;17.00;99.90;;;;;;5044952;28;20166;-84
2022/07/17 02:09:40;;;;;;;3.50;1.30;;;17.00;99.90;;;;;;5066934;28;20193;-84
2022/07/17 02:12:35;;;;;;;2.67;1.40;;;17.00;99.90;;;;;;5045552;28;20171;-80
2022/07/17 02:15:01;;;;;;;3.35;1.20;;;16.90;99.90;;;;;;5045605;28;20277;-84
2022/07/17 02:17:27;;;;;;;3.92;1.52;;;16.80;99.90;;;;;;5068614;28;20175;-82
2022/07/17 02:19:56;;;;;;;4.43;1.52;;;16.60;99.90;;;;;;5049170;28;20189;-83
2022/07/17 02:23:02;;;;;;;4.20;1.20;;;16.50;99.90;;;;;;5044600;28;20160;-80
2022/07/17 02:25:29;;;;;;;7.25;1.90;;;16.80;99.90;;;;;;5058871;28;20155;-83
2022/07/17 02:28:05;;;;;;;4.88;2.08;;;16.60;99.90;;;;;;5045575;28;20162;-81
2022/07/17 02:30:31;;;;;;;15.48;1.95;;;16.60;99.90;;;;;;5020547;28;20256;-83
2022/07/17 02:32:56;;;;;;;7.35;1.70;;;16.60;99.90;;;;;;5052833;28;20624;-81
2022/07/17 02:35:22;;;;;;;3.33;1.23;;;16.40;99.90;;;;;;5052894;28;20171;-82
2022/07/17 02:37:48;;;;;;;5.57;1.45;;;16.40;99.90;;;;;;5035049;28;20252;-82
2022/07/17 02:40:13;;;;;;;2.92;1.80;;;16.40;99.90;;;;;;5052965;28;20700;-83
2022/07/17 02:42:39;;;;;;;3.15;1.60;;;16.60;99.90;;;;;;5035355;28;20171;-82
2022/07/17 02:45:06;;;;;;;8.32;2.00;;;16.60;99.90;;;;;;5055619;28;20218;-83
2022/07/17 02:47:33;;;;;;;7.25;1.58;;;16.70;99.90;;;;;;5037699;28;20167;-82
2022/07/17 02:50:01;;;;;;;5.07;1.55;;;16.70;99.90;;;;;;5057913;28;20190;-82
2022/07/17 02:52:27;;;;;;;2.00;1.50;;;16.80;99.90;;;;;;5041154;28;20202;-82
2022/07/17 02:54:53;;;;;;;2.35;1.73;;;16.90;99.90;;;;;;5058011;28;20167;-81
2022/07/17 02:57:19;;;;;;;3.95;1.50;;;16.90;99.90;;;;;;5039035;28;20179;-82
2022/07/17 02:59:45;;;;;;;3.35;1.45;;;16.90;99.90;;;;;;5039539;28;20206;-83
2022/07/17 03:02:11;;;;;;;6.75;1.92;;;16.90;99.90;;;;;;5057797;28;20171;-84
2022/07/17 03:04:37;;;;;;;3.67;1.88;;;16.80;99.90;;;;;;5057716;28;20174;-82
2022/07/17 03:07:02;;;;;;;5.55;1.75;;;16.50;99.90;;;;;;5074109;28;20163;-81
2022/07/17 03:09:28;;;;;;;12.48;1.88;;;16.50;99.90;;;;;;5060073;28;20191;-81
2022/07/17 03:11:54;;;;;;;6.05;1.80;;;16.40;99.90;;;;;;5060133;28;20179;-82
2022/07/17 03:14:19;;;;;;;6.32;1.35;;;16.50;99.90;;;;;;5060274;28;20206;-82
2022/07/17 03:16:45;;;;;;;5.35;1.98;;;16.50;99.90;;;;;;5060478;28;20159;-82
2022/07/17 03:19:10;;;;;;;4.03;1.42;;;16.40;99.90;;;;;;5060354;28;20175;-82
2022/07/17 03:21:36;;;;;;;5.05;1.73;;;16.50;99.90;;;;;;5077361;28;20222;-82
2022/07/17 03:24:02;;;;;;;3.88;1.90;;;16.70;99.90;;;;;;5039457;28;20631;-82
2022/07/17 03:26:27;;;;;;;5.68;1.85;;;16.60;99.90;;;;;;5034306;28;20199;-82
2022/07/17 03:28:53;;;;;;;7.90;1.63;;;16.50;99.90;;;;;;5034503;28;20167;-81
2022/07/17 03:31:19;;;;;;;2.05;1.83;;;16.30;99.90;;;;;;5055014;28;20663;-82
2022/07/17 03:33:44;;;;;;;5.45;2.00;;;16.20;99.90;;;;;;5056034;28;20237;-82
2022/07/17 03:36:10;;;;;;;4.97;2.08;;;16.10;99.90;;;;;;5038139;28;20175;-84
2022/07/17 03:38:36;;;;;;;3.35;2.17;;;16.10;99.90;;;;;;5037668;28;20213;-82
2022/07/17 03:41:01;;;;;;;2.47;1.80;;;16.00;99.90;;;;;;5055524;28;20210;-84
2022/07/17 03:43:27;;;;;;;5.95;1.80;;;16.00;99.90;;;;;;5037785;28;20174;-82
2022/07/17 03:45:52;;;;;;;6.10;1.80;;;16.10;99.90;;;;;;5037455;28;20258;-83
2022/07/17 03:48:18;;;;;;;4.43;1.83;;;16.20;99.90;;;;;;5055559;28;20206;-81
2022/07/17 03:50:44;;;;;;;4.85;1.80;;;16.10;99.90;;;;;;5055613;28;20209;-82
2022/07/17 03:53:10;;;;;;;2.45;1.80;;;16.10;99.90;;;;;;5055374;28;20174;-84
2022/07/17 03:55:35;;;;;;;5.75;2.47;;;16.20;99.90;;;;;;5055314;28;20224;-82
2022/07/17 03:58:01;;;;;;;3.70;1.80;;;16.20;99.90;;;;;;5037677;28;20182;-82
2022/07/17 04:00:27;;;;;;;8.77;2.22;;;16.20;99.90;;;;;;5055292;28;20207;-83
2022/07/17 04:02:53;;;;;;;6.72;2.05;;;16.30;99.90;;;;;;5037738;28;20175;-82
2022/07/17 04:05:18;;;;;;;4.00;2.10;;;16.50;99.90;;;;;;5055316;28;20174;-83
2022/07/17 04:07:44;;;;;;;4.22;2.00;;;16.70;99.90;;;;;;5055275;28;20178;-83
2022/07/17 04:10:12;;;;;;;6.40;2.53;;;16.70;99.90;;;;;;5057835;28;20187;-82
2022/07/17 04:12:38;;;;;;;6.22;2.55;;;16.70;99.90;;;;;;5043761;28;20179;-82
2022/07/17 04:15:05;;;;;;;4.30;2.03;;;16.40;99.90;;;;;;5074185;28;20209;-80
2022/07/17 04:17:30;;;;;;;3.17;2.00;;;16.30;99.90;;;;;;5074899;28;20168;-81
2022/07/17 04:19:57;;;;;;;3.03;1.55;;;16.40;99.90;;;;;;5044288;28;20265;-84
2022/07/17 04:22:22;;;;;;;5.85;1.90;;;16.70;99.90;;;;;;5055256;28;20221;-85
2022/07/17 04:24:48;;;;;;;7.35;1.67;;;16.90;99.90;;;;;;5054790;28;20176;-84
2022/07/17 04:27:14;;;;;;;4.45;2.22;;;17.10;99.90;;;;;;5055116;28;20250;-83
2022/07/17 04:29:40;;;;;;;10.95;2.28;;;17.00;99.90;;;;;;5036806;28;20226;-86
2022/07/17 04:32:06;;;;;;;7.28;2.20;;;17.00;99.90;;;;;;5036973;28;20266;-84
2022/07/17 04:34:32;;;;;;;4.45;2.13;;;17.00;99.90;;;;;;5037002;28;20300;-84
2022/07/17 04:36:59;;;;;;;4.05;2.13;;;16.80;99.90;;;;;;5054883;28;20628;-85
2022/07/17 04:39:24;;;;;;;14.57;2.15;;;16.50;99.90;;;;;;5036592;28;20653;-83
2022/07/17 04:41:51;;;;;;;9.20;2.03;;;16.50;99.90;;;;;;5053902;28;20179;-83
2022/07/17 04:44:17;;;;;;;5.90;1.88;;;16.70;99.90;;;;;;5037207;28;20216;-84
2022/07/17 04:46:43;;;;;;;8.73;1.98;;;16.80;99.90;;;;;;5036523;28;20316;-83
2022/07/17 04:49:08;;;;;;;7.70;1.90;;;17.10;99.90;;;;;;5036323;28;20254;-84
2022/07/17 04:51:34;;;;;;;6.15;1.80;;;17.20;99.90;;;;;;5054441;28;20174;-82
2022/07/17 04:54:00;;;;;;;7.90;2.05;;;17.10;99.90;;;;;;5036457;28;20652;-82
2022/07/17 04:56:25;;;;;;;9.27;2.95;;;17.10;99.90;;;;;;5036366;28;20517;-84
2022/07/17 04:58:51;;;;;;;4.72;2.50;;;17.20;99.90;;;;;;5036676;28;20222;-85
2022/07/17 05:01:16;;;;;;;6.30;2.25;;;17.10;99.90;;;;;;5036322;28;20211;-83
2022/07/17 05:03:42;;;;;;;11.70;2.65;;;17.10;99.90;;;;;;5054586;28;20225;-85
2022/07/17 05:06:09;;;;;;;5.97;2.30;;;17.00;99.90;;;;;;5055143;28;20171;-85
2022/07/17 05:08:36;;;;;;;6.70;2.10;;;16.70;99.90;;;;;;5036427;28;20259;-83
2022/07/17 05:11:02;;;;;;;10.15;1.92;;;16.60;99.90;;;;;;5036122;28;20588;-83
2022/07/17 05:13:28;;;;;;;6.43;2.75;;;16.60;99.90;;;;;;5053619;28;20206;-83
2022/07/17 05:15:53;;;;;;;6.70;2.22;;;16.60;99.90;;;;;;5035962;28;20202;-84
2022/07/17 05:18:19;;;;;;;10.05;2.65;;;16.60;99.90;;;;;;5054648;28;20167;-85
2022/07/17 05:20:45;;;;;;;5.07;2.30;;;16.70;99.90;;;;;;5036129;28;20625;-82
2022/07/17 05:23:10;;;;;;;14.25;2.38;;;16.90;99.90;;;;;;5054292;28;20593;-83
2022/07/17 05:25:36;;;;;;;10.02;2.17;;;16.80;99.90;;;;;;5053861;28;20294;-84
2022/07/17 05:28:02;;;;;;;4.78;2.28;;;17.10;99.90;;;;;;5035971;28;20175;-83
2022/07/17 05:30:28;;;;;;;4.80;1.88;;;17.50;99.90;;;;;;5035687;28;20187;-84
2022/07/17 05:32:54;;;;;;;7.68;2.28;;;17.50;99.90;;;;;;5053803;28;20163;-82
2022/07/17 05:35:20;;;;;;;5.45;2.38;;;17.50;99.90;;;;;;5053839;28;20179;-83
2022/07/17 05:37:45;;;;;;;4.55;2.10;;;17.50;99.90;;;;;;5036260;28;20171;-83
2022/07/17 05:40:12;;;;;;;4.45;2.00;;;17.60;99.90;;;;;;5035700;28;20682;-85
2022/07/17 05:42:37;;;;;;;2.40;1.95;;;17.80;99.90;;;;;;5053645;28;20635;-81
2022/07/17 05:45:04;;;;;;;14.93;2.30;;;17.90;99.90;;;;;;5053343;28;20170;-85
2022/07/17 05:47:30;;;;;;;8.73;2.20;;;18.10;99.90;;;;;;5035910;28;20183;-82
2022/07/17 05:49:56;;;;;;;4.05;1.73;;;18.20;99.90;;;;;;5035606;28;20560;-84
2022/07/17 05:52:21;;;;;;;6.00;2.28;;;18.30;99.90;;;;;;5053266;28;20234;-84
2022/07/17 05:54:47;;;;;;;5.70;1.85;;;18.50;99.90;;;;;;5052140;28;20164;-83
2022/07/17 05:57:13;;;;;;;5.20;1.80;;;18.20;99.90;;;;;;5035489;28;20577;-83
2022/07/17 05:59:38;;;;;;;3.28;1.67;;;18.20;99.90;;;;;;5035287;28;20194;-83
2022/07/17 06:02:04;;;;;;;3.63;1.90;;;18.20;99.90;;;;;;5053206;28;20175;-82
2022/07/17 06:04:30;;;;;;;5.35;1.80;;;18.30;99.90;;;;;;5053236;28;20167;-83
2022/07/17 06:06:56;;;;;;;5.00;1.95;;;18.30;99.90;;;;;;5053850;28;20171;-83
2022/07/17 06:09:22;;;;;;;3.78;1.67;;;18.20;99.90;;;;;;5062247;28;20265;-82
2022/07/17 06:11:48;;;;;;;5.40;1.90;;;17.90;99.90;;;;;;5059404;28;20186;-84
2022/07/17 06:14:13;;;;;;;4.75;2.22;;;18.00;99.90;;;;;;5057342;28;20190;-84
2022/07/17 06:16:39;;;;;;;3.92;1.95;;;18.20;99.90;;;;;;5054087;28;20183;-84
2022/07/17 06:19:05;;;;;;;7.80;1.77;;;18.40;99.90;;;;;;5053610;28;20171;-83
2022/07/17 06:21:30;;;;;;;4.07;1.92;;;18.20;99.90;;;;;;5036328;28;20215;-84
2022/07/17 06:23:56;;;;;;;9.63;1.92;;;18.30;99.90;;;;;;5057790;28;20167;-82
2022/07/17 06:26:21;;;;;;;9.20;2.13;;;18.30;99.90;;;;;;5057481;28;20642;-82
2022/07/17 06:28:47;;;;;;;6.32;2.20;;;18.30;99.90;;;;;;5055538;28;20170;-82
2022/07/17 06:31:13;;;;;;;6.22;1.67;;;18.40;99.90;;;;;;5069328;28;20208;-83
2022/07/17 06:33:38;;;;;;;4.13;1.52;;;18.60;99.90;;;;;;5056072;28;20254;-83
2022/07/17 06:36:04;;;;;;;3.60;1.73;;;18.70;99.90;;;;;;5055811;28;20201;-84
2022/07/17 06:38:33;;;;;;;5.35;1.88;;;19.00;99.90;;;;;;5060465;28;20167;-83
2022/07/17 06:40:58;;;;;;;4.00;2.03;;;19.10;99.90;;;;;;5067462;28;20215;-81
2022/07/17 06:43:24;;;;;;;9.77;1.85;;;19.00;99.90;;;;;;5076061;28;20194;-83
2022/07/17 06:45:53;;;;;;;10.73;2.33;;;19.00;99.90;;;;;;5058454;28;20250;-82
2022/07/17 06:48:20;;;;;;;4.55;1.98;;;19.10;99.90;;;;;;5037604;28;20176;-83
2022/07/17 06:50:46;;;;;;;4.20;2.17;;;19.00;99.90;;;;;;5055033;28;20229;-84
2022/07/17 06:53:12;;;;;;;3.33;1.65;;;19.00;99.90;;;;;;5036103;28;20179;-85
2022/07/17 06:55:40;;;;;;;4.85;1.77;;;19.20;99.90;;;;;;5055294;28;20576;-84
2022/07/17 06:58:06;;;;;;;7.45;1.63;;;19.30;99.90;;;;;;5056532;28;20176;-82
2022/07/17 07:00:32;;;;;;;7.72;1.67;;;19.20;99.90;;;;;;5055156;28;20301;-84
2022/07/17 07:02:58;;;;;;;3.40;1.48;;;19.30;99.90;;;;;;5056795;28;20174;-83
2022/07/17 07:05:24;;;;;;;10.32;1.75;;;19.50;99.90;;;;;;5054450;28;20167;-85
2022/07/17 07:07:49;;;;;;;2.80;1.70;;;19.70;99.90;;;;;;5038616;28;20182;-83
2022/07/17 07:10:15;;;;;;;8.13;1.50;;;20.30;99.90;;;;;;5056371;28;20214;-82
2022/07/17 07:12:41;;;;;;;5.72;1.65;;;21.00;99.90;;;;;;5056459;28;20523;-83
2022/07/17 07:15:08;;;;;;;4.55;1.42;;;21.60;99.90;;;;;;5038332;28;20194;-85
2022/07/17 07:17:36;;;;;;;6.97;1.70;;;22.30;99.90;;;;;;5056725;28;20159;-85
2022/07/17 07:20:05;;;;;;;8.48;2.08;;;22.90;99.90;;;;;;5056186;28;20209;-84
2022/07/17 07:22:32;;;;;;;4.72;1.50;;;23.20;99.90;;;;;;5038459;28;20173;-83
2022/07/17 07:24:58;;;;;;;3.58;1.65;;;24.10;99.90;;;;;;5056247;28;20667;-84
2022/07/17 07:27:24;;;;;;;2.42;1.10;;;24.60;99.90;;;;;;5055704;28;20171;-82
2022/07/17 07:29:49;;;;;;;6.03;1.48;;;24.70;99.90;;;;;;5056461;28;20269;-83
2022/07/17 07:32:15;;;;;;;7.78;1.48;;;25.50;99.90;;;;;;5038523;28;20589;-84
2022/07/17 07:34:41;;;;;;;2.55;1.33;;;25.00;99.90;;;;;;5038429;28;20258;-83
2022/07/17 07:37:08;;;;;;;5.47;1.40;;;26.00;99.90;;;;;;5056476;28;20234;-83
2022/07/17 07:39:34;;;;;;;7.53;1.90;;;26.10;99.90;;;;;;5055906;28;20183;-84
2022/07/17 07:42:00;;;;;;;8.30;1.67;;;26.10;99.90;;;;;;5038151;28;20178;-84
2022/07/17 07:44:26;;;;;;;4.28;1.40;;;25.90;99.90;;;;;;5056202;28;20164;-85
2022/07/17 07:46:51;;;;;;;6.80;1.73;;;25.80;99.90;;;;;;5055675;28;20167;-85
2022/07/17 07:49:17;;;;;;;3.53;1.30;;;26.30;99.90;;;;;;5037962;28;20186;-83
2022/07/17 07:51:43;;;;;;;3.78;1.63;;;26.50;99.90;;;;;;5038015;28;20167;-84
2022/07/17 07:54:09;;;;;;;6.07;1.20;;;26.30;99.90;;;;;;5055926;28;20527;-83
2022/07/17 07:56:36;;;;;;;5.57;1.20;;;25.80;99.90;;;;;;5037818;28;20171;-84
2022/07/17 07:59:02;;;;;;;6.20;1.42;;;25.30;99.90;;;;;;5055804;28;20178;-84
2022/07/17 08:01:28;;;;;;;8.07;1.42;;;25.00;99.90;;;;;;5055056;28;20280;-83
2022/07/17 08:03:53;;;;;;;17.02;1.85;;;24.50;99.90;;;;;;5055638;28;20215;-83
2022/07/17 08:06:19;;;;;;;9.13;2.08;;;24.10;99.90;;;;;;5037544;28;20175;-83
2022/07/17 08:08:45;;;;;;;13.15;1.38;;;23.40;99.90;;;;;;5055362;28;20174;-83
2022/07/17 08:11:12;;;;;;;2.67;1.30;;;23.10;99.90;;;;;;5055894;28;20631;-83
2022/07/17 08:13:38;;;;;;;7.75;1.40;;;23.20;99.90;;;;;;5023969;28;20636;-85
2022/07/17 08:16:04;;;;;;;5.60;1.42;;;23.30;99.90;;;;;;5056223;28;20183;-85
2022/07/17 08:18:29;;;;;;;5.82;1.77;;;23.30;99.90;;;;;;5037385;28;20174;-83
2022/07/17 08:23:27;;;;;;;8.15;1.65;;;23.30;99.90;;;;;;5021902;28;20199;-85
2022/07/17 08:25:53;;;;;;;6.90;1.30;;;23.40;99.90;;;;;;5055907;28;20186;-84
2022/07/17 08:28:18;;;;;;;6.15;1.25;;;23.00;99.90;;;;;;5055821;28;20644;-83
2022/07/17 08:30:44;;;;;;;4.57;1.15;;;22.80;99.90;;;;;;5055378;28;20184;-84
2022/07/17 08:33:10;;;;;;;4.60;0.98;;;22.70;99.90;;;;;;5055115;28;20174;-84
2022/07/17 08:35:36;;;;;;;5.28;1.15;;;23.00;99.90;;;;;;5056092;28;20171;-85
2022/07/17 08:38:02;;;;;;;2.03;0.90;;;22.90;99.90;;;;;;5055638;28;20643;-83
2022/07/17 08:40:31;;;;;;;10.85;1.75;;;22.70;99.90;;;;;;5056248;28;20213;-83
2022/07/17 08:42:58;;;;;;;4.10;1.08;;;22.70;99.90;;;;;;5059762;28;20246;-83
2022/07/17 08:45:24;;;;;;;7.13;0.98;;;22.60;99.90;;;;;;5056715;28;20179;-84
2022/07/17 08:47:52;;;;;;;9.63;1.40;;;22.60;99.90;;;;;;5054800;28;20178;-84
2022/07/17 08:50:23;;;;;;;12.55;1.73;;;22.70;99.90;;;;;;5054923;28;20264;-83
2022/07/17 08:52:49;;;;;;;3.13;1.00;;;23.00;99.90;;;;;;5037155;28;20233;-84
2022/07/17 08:55:15;;;;;;;9.23;1.38;;;23.20;99.90;;;;;;5055581;28;20659;-83
2022/07/17 08:57:43;;;;;;;12.55;1.40;;;23.40;99.90;;;;;;5036683;28;20171;-84
2022/07/17 09:00:11;;;;;;;3.10;1.15;;;23.40;99.90;;;;;;5036288;28;20206;-84
2022/07/17 09:02:38;;;;;;;3.75;1.00;;;23.30;99.90;;;;;;5054699;28;20175;-83
2022/07/17 09:05:05;;;;;;;7.88;1.42;;;23.30;99.90;;;;;;5050137;28;20262;-82
2022/07/17 09:07:32;;;;;;;6.25;1.08;;;23.50;99.90;;;;;;5058821;28;20174;-82
2022/07/17 09:09:58;;;;;;;9.18;1.20;;;23.70;99.90;;;;;;5067457;28;20660;-82
2022/07/17 09:12:29;;;;;;;8.18;0.95;;;23.80;99.90;;;;;;5054800;28;20226;-83
2022/07/17 09:14:55;;;;;;;4.47;1.10;;;23.90;99.90;;;;;;5036899;28;20191;-83
2022/07/17 09:17:22;;;;;;;2.65;1.15;;;23.90;99.90;;;;;;5054863;28;20170;-83
2022/07/17 09:19:48;;;;;;;2.70;1.13;;;23.70;99.90;;;;;;5036827;28;20230;-83
2022/07/17 09:22:23;;;;;;;2.47;1.30;;;23.60;99.90;;;;;;5054465;28;20164;-84
2022/07/17 09:24:55;;;;;;;3.17;0.98;;;23.60;99.90;;;;;;5054173;28;20173;-85
2022/07/17 09:27:23;;;;;;;2.55;0.98;;;23.60;99.90;;;;;;5036473;28;20174;-83
2022/07/17 09:30:11;;;;;;;11.60;1.35;;;23.70;99.90;;;;;;5053910;28;20186;-83
2022/07/17 09:32:38;;;;;;;6.88;1.10;;;23.80;99.90;;;;;;5053998;28;20182;-83
2022/07/17 09:35:06;;;;;;;3.35;1.25;;;23.70;99.90;;;;;;5037913;28;20596;-83
2022/07/17 09:37:34;;;;;;;2.92;1.30;;;23.70;99.90;;;;;;5036055;28;20171;-84
2022/07/17 09:40:01;;;;;;;3.45;0.90;;;23.80;99.90;;;;;;5053759;28;20261;-83
2022/07/17 09:42:32;;;;;;;4.63;1.15;;;24.00;99.90;;;;;;5053851;28;20170;-86
2022/07/17 09:44:59;;;;;;;10.13;0.95;;;23.80;99.90;;;;;;5053549;28;20163;-83
2022/07/17 09:47:25;;;;;;;4.40;0.95;;;24.00;99.90;;;;;;5053469;28;20177;-83
2022/07/17 09:49:55;;;;;;;5.28;1.20;;;24.30;99.90;;;;;;5035796;28;20183;-86
2022/07/17 09:52:32;;;;;;;4.65;1.20;;;24.20;99.90;;;;;;5035661;28;20242;-85
2022/07/17 09:54:59;;;;;;;5.90;0.90;;;24.30;99.90;;;;;;5035462;28;20170;-84
2022/07/17 09:57:30;;;;;;;4.03;1.20;;;24.10;99.90;;;;;;5035775;28;20658;-85
2022/07/17 09:59:58;;;;;;;5.93;1.40;;;24.20;99.90;;;;;;5057447;28;20205;-85
2022/07/17 10:02:24;;;;;;;2.25;1.30;;;24.30;99.90;;;;;;5019813;28;20658;-85
2022/07/17 10:04:52;;;;;;;7.68;1.13;;;24.60;99.90;;;;;;5035682;28;20163;-84
2022/07/17 10:07:19;;;;;;;1.95;1.10;;;24.30;99.90;;;;;;5053266;28;20167;-83
2022/07/17 10:09:45;;;;;;;3.15;1.50;;;24.50;99.90;;;;;;5053018;28;20709;-85
2022/07/17 10:12:11;;;;;;;2.08;1.10;;;24.30;99.90;;;;;;5053091;28;20159;-84
2022/07/17 10:14:40;;;;;;;3.72;1.70;;;24.40;99.90;;;;;;5052789;28;20643;-85
2022/07/17 10:17:08;;;;;;;1.70;1.30;;;24.50;99.90;;;;;;5035275;28;20527;-83
2022/07/17 10:19:33;;;;;;;5.63;1.20;;;24.50;99.90;;;;;;5052870;28;20175;-84
2022/07/17 10:22:05;;;;;;;4.70;1.33;;;24.70;99.90;;;;;;5053203;28;20178;-86
2022/07/17 10:24:31;;;;;;;3.38;1.65;;;24.80;99.90;;;;;;5035284;28;20644;-86
2022/07/17 10:26:58;;;;;;;5.07;1.40;;;24.50;99.90;;;;;;5053472;28;20185;-83
2022/07/17 10:29:31;;;;;;;3.42;1.33;;;24.50;99.90;;;;;;5053254;28;20531;-85
2022/07/17 10:31:58;;;;;;;5.55;1.70;;;24.40;99.90;;;;;;5035457;28;20262;-82
2022/07/17 10:34:47;;;;;;;4.00;1.73;;;24.50;99.90;;;;;;5035607;28;20167;-82
2022/07/17 10:37:22;;;;;;;7.38;2.08;;;24.50;99.90;;;;;;5055218;28;20301;-82
2022/07/17 10:40:05;;;;;;;3.05;1.42;;;24.60;99.90;;;;;;5054443;28;20237;-83
2022/07/17 10:42:40;;;;;;;9.38;1.98;;;24.80;99.90;;;;;;5058619;28;20175;-82
2022/07/17 10:45:08;;;;;;;8.82;1.83;;;25.20;99.90;;;;;;5040263;28;20167;-83
2022/07/17 10:47:44;;;;;;;3.08;1.60;;;25.30;99.10;;;;;;5057976;28;20174;-83
2022/07/17 10:50:11;;;;;;;3.80;1.30;;;25.20;99.90;;;;;;5058216;28;20273;-84
2022/07/17 10:52:37;;;;;;;10.50;1.45;;;25.30;99.90;;;;;;5040392;28;20262;-85
2022/07/17 10:55:05;;;;;;;5.75;1.80;;;25.40;99.90;;;;;;5058147;28;20638;-83
2022/07/17 10:57:32;;;;;;;3.78;1.80;;;25.40;99.70;;;;;;5047632;28;20171;-84
2022/07/17 10:59:58;;;;;;;5.82;2.47;;;25.20;98.20;;;;;;5042216;28;20206;-85
2022/07/17 11:02:30;;;;;;;3.42;2.20;;;24.80;98.10;;;;;;5040429;28;20167;-83
2022/07/17 11:05:26;;;;;;;7.30;1.88;;;25.00;98.70;;;;;;5058554;28;20202;-84
2022/07/17 11:07:59;;;;;;;3.05;2.03;;;25.10;99.20;;;;;;5045496;28;20206;-85
2022/07/17 11:10:26;;;;;;;4.45;2.33;;;25.20;99.70;;;;;;5058744;28;20190;-84
2022/07/17 11:12:54;;;;;;;2.08;1.70;;;25.30;99.40;;;;;;5039221;28;20179;-82
2022/07/17 11:15:19;;;;;;;4.93;1.95;;;25.30;98.50;;;;;;5057055;28;20182;-82
2022/07/17 11:17:47;;;;;;;7.18;2.25;;;25.20;98.80;;;;;;5057803;28;20250;-84
2022/07/17 11:20:13;;;;;;;2.33;1.60;;;25.40;98.40;;;;;;5042283;28;20195;-83
2022/07/17 11:22:39;;;;;;;2.00;1.60;;;25.50;98.40;;;;;;5058933;28;20182;-83
2022/07/17 11:25:06;;;;;;;5.40;2.35;;;25.50;99.00;;;;;;5059040;28;20163;-84
2022/07/17 11:27:33;;;;;;;13.68;2.17;;;25.70;98.50;;;;;;5039025;28;20220;-84
2022/07/17 11:30:00;;;;;;;3.25;1.90;;;25.90;97.80;;;;;;5066350;28;20231;-83
2022/07/17 11:32:33;;;;;;;5.00;1.75;;;25.90;98.80;;;;;;5074835;28;20174;-83
2022/07/17 11:34:59;;;;;;;4.68;2.00;;;25.70;98.10;;;;;;5080307;28;20165;-83
2022/07/17 11:37:30;;;;;;;9.30;1.65;;;26.00;99.90;;;;;;5039703;28;20167;-83
2022/07/17 11:39:57;;;;;;;6.30;1.73;;;26.10;97.90;;;;;;5039535;28;20206;-83
2022/07/17 11:42:24;;;;;;;3.28;2.30;;;26.00;97.40;;;;;;5040659;28;20648;-83
2022/07/17 11:44:51;;;;;;;10.90;2.58;;;25.80;96.80;;;;;;5041533;28;20271;-83
2022/07/17 11:47:28;;;;;;;4.90;2.22;;;25.60;96.60;;;;;;5057805;28;20199;-82
2022/07/17 11:50:06;;;;;;;3.92;2.53;;;25.50;95.80;;;;;;5040594;28;20194;-82
2022/07/17 11:52:44;;;;;;;2.90;2.28;;;25.70;96.20;;;;;;5059214;28;20636;-83
2022/07/17 11:55:11;;;;;;;3.58;2.78;;;26.00;95.70;;;;;;5057498;28;20651;-84
2022/07/17 11:57:47;;;;;;;4.60;2.13;;;26.10;95.80;;;;;;5065665;28;20171;-83
2022/07/17 12:00:18;;;;;;;2.55;1.60;;;26.10;96.20;;;;;;5042591;28;20214;-85
2022/07/17 12:02:44;;;;;;;2.80;2.13;;;26.10;96.20;;;;;;5055807;28;20217;-83
2022/07/17 12:05:10;;;;;;;5.32;2.38;;;26.30;95.00;;;;;;5037616;28;20179;-82
2022/07/17 12:07:44;;;;;;;3.35;2.10;;;26.50;94.30;;;;;;5056294;28;20566;-82
2022/07/17 12:10:22;;;;;;;1.88;1.70;;;26.70;93.20;;;;;;5038545;28;20183;-84
2022/07/17 12:13:07;;;;;;;5.35;1.80;;;26.30;93.40;;;;;;5037970;28;20210;-83
2022/07/17 12:15:49;;;;;;;5.07;2.17;;;26.40;95.00;;;;;;5045515;28;20190;-83
2022/07/17 12:18:30;;;;;;;6.82;2.10;;;26.60;96.00;;;;;;5072181;28;20167;-82
2022/07/17 12:21:19;;;;;;;5.90;2.17;;;26.70;96.80;;;;;;5071085;28;20697;-82
2022/07/17 12:23:44;;;;;;;2.20;1.27;;;26.80;96.30;;;;;;5060815;28;20246;-83
2022/07/17 12:26:21;;;;;;;2.38;1.65;;;26.50;97.00;;;;;;5062071;28;20186;-82
2022/07/17 12:28:59;;;;;;;7.07;1.50;;;26.30;96.70;;;;;;5055039;28;20179;-83
2022/07/17 12:31:26;;;;;;;2.25;1.75;;;26.30;97.40;;;;;;5069478;28;20731;-83
2022/07/17 12:33:57;;;;;;;2.65;2.15;;;26.50;96.80;;;;;;5069846;28;20147;-85
2022/07/17 12:36:23;;;;;;;1.73;1.60;;;26.50;95.60;;;;;;5054789;28;20234;-84
2022/07/17 12:38:49;;;;;;;2.95;1.80;;;26.60;95.40;;;;;;5072877;28;20238;-82
2022/07/17 12:41:16;;;;;;;10.82;1.70;;;26.80;95.30;;;;;;5047088;28;20226;-84
2022/07/17 12:43:42;;;;;;;7.05;2.17;;;26.70;95.10;;;;;;5047382;28;20185;-83
2022/07/17 12:46:08;;;;;;;2.72;1.95;;;26.50;96.10;;;;;;5047944;28;20238;-82
2022/07/17 12:48:34;;;;;;;6.63;1.73;;;26.30;95.70;;;;;;5049799;28;20169;-84